Time;durP1;ratioP1;P1;durP2;ratioP2;P2;SDS_P1;SDS_P2;PMS_P1;PMS_P2;Temp;Humidity;BMP_temperature;BMP_pressure;BME280_temperature;BME280_humidity;BME280_pressure;Samples;Min_cycle;Max_cycle;Signal;HPM_P1;HPM_P2
2022/06/12 00:02:17;;;;;;;5.25;2.15;;;;;;;14.92;76.69;102297.50;5073927;28;20054;-36
2022/06/12 00:04:42;;;;;;;;;;;;;;;15.12;73.81;102289.13;5074285;28;20040;-36
2022/06/12 00:07:08;;;;;;;5.17;2.17;;;;;;;14.89;77.23;102291.69;5074418;28;19919;-36
2022/06/12 00:09:33;;;;;;;;;;;;;;;15.11;73.88;102289.34;5074733;28;20378;-36
2022/06/12 00:11:59;;;;;;;4.47;2.03;;;;;;;14.85;76.30;102294.03;5074162;28;19919;-36
2022/06/12 00:14:25;;;;;;;;;;;;;;;15.04;73.81;102291.34;5074322;28;20024;-36
2022/06/12 00:16:52;;;;;;;5.03;2.00;;;;;;;14.73;76.52;102276.75;5074006;28;20294;-35
2022/06/12 00:19:19;;;;;;;5.72;1.77;;;;;;;14.70;76.89;102292.72;5072925;28;20484;-42
2022/06/12 00:21:44;;;;;;;6.88;2.20;;;;;;;14.72;76.55;102296.03;5074038;28;20060;-36
2022/06/12 00:24:12;;;;;;;;;;;;;;;14.92;74.16;102283.06;5074090;28;20125;-36
2022/06/12 00:26:39;;;;;;;;;;;;;;;14.93;73.67;102284.72;5075089;28;19923;-36
2022/06/12 00:29:14;;;;;;;4.88;2.13;;;;;;;14.68;75.51;102290.19;5073756;28;19919;-36
2022/06/12 00:31:43;;;;;;;3.28;1.80;;;;;;;14.54;76.59;102289.50;5073948;28;20118;-35
2022/06/12 00:34:12;;;;;;;7.18;1.70;;;;;;;14.51;76.95;102294.53;5073622;28;20029;-36
2022/06/12 00:36:38;;;;;;;5.90;2.13;;;;;;;14.47;76.89;102283.22;5074407;28;20036;-36
2022/06/12 00:39:05;;;;;;;5.25;2.08;;;;;;;14.38;76.98;102281.81;5073289;28;20032;-36
2022/06/12 00:41:31;;;;;;;6.93;2.03;;;;;;;14.40;77.78;102290.63;5073803;28;20024;-36
2022/06/12 00:43:56;;;;;;;;;;;;;;;14.59;75.02;102286.06;5073638;28;20055;-36
2022/06/12 00:46:46;;;;;;;4.63;1.67;;;;;;;14.37;76.54;102285.63;5073823;28;19916;-36
2022/06/12 00:49:29;;;;;;;5.70;1.95;;;;;;;14.36;77.40;102295.66;5073395;28;20467;-36
2022/06/12 00:52:20;;;;;;;6.55;2.38;;;;;;;14.32;77.61;102291.72;5073970;28;20104;-36
2022/06/12 00:54:52;;;;;;;5.32;2.10;;;;;;;14.24;78.28;102293.88;5073168;28;20056;-35
2022/06/12 00:57:19;;;;;;;5.03;2.00;;;;;;;14.10;78.57;102280.38;5073314;28;20028;-35
2022/06/12 00:59:48;;;;;;;6.53;2.10;;;;;;;14.14;78.43;102289.75;5106066;28;20055;-35
2022/06/12 01:02:19;;;;;;;4.45;2.20;;;;;;;14.13;78.53;102289.97;5074065;28;20367;-36
2022/06/12 01:07:32;;;;;;;6.22;2.20;;;;;;;14.09;79.07;102288.72;5073376;28;20185;-36
2022/06/12 01:10:01;;;;;;;9.82;3.15;;;;;;;14.07;79.00;102283.53;5073524;28;20036;-36
2022/06/12 01:12:31;;;;;;;10.05;3.10;;;;;;;13.99;79.29;102288.38;5073088;28;20032;-36
2022/06/12 01:15:00;;;;;;;10.70;3.38;;;;;;;13.99;79.26;102286.50;5073761;28;20369;-36
2022/06/12 01:17:27;;;;;;;9.90;2.70;;;;;;;13.87;79.55;102278.22;5073155;28;20039;-35
2022/06/12 01:19:57;;;;;;;11.27;2.92;;;;;;;13.86;80.00;102273.00;5072724;28;20020;-36
2022/06/12 01:22:38;;;;;;;7.18;2.33;;;;;;;13.86;79.69;102275.72;5073510;28;20032;-35
2022/06/12 01:25:34;;;;;;;6.00;2.17;;;;;;;13.83;79.71;102276.97;5072960;28;20050;-36
2022/06/12 01:28:25;;;;;;;8.60;2.20;;;;;;;13.87;79.59;102290.97;5072985;28;20035;-36
2022/06/12 01:31:06;;;;;;;19.45;6.00;;;;;;;13.75;80.45;102279.09;5072851;28;20346;-35
2022/06/12 01:33:50;;;;;;;23.50;6.85;;;;;;;13.83;80.21;102284.28;5073197;28;20058;-35
2022/06/12 01:36:29;;;;;;;27.63;7.90;;;;;;;13.60;80.74;102273.94;5074883;28;20157;-36
2022/06/12 01:39:11;;;;;;;28.20;7.50;;;;;;;13.69;81.13;102285.41;5077836;28;20383;-36
2022/06/12 01:42:06;;;;;;;21.40;6.85;;;;;;;13.72;80.73;102285.00;5077357;28;20024;-36
2022/06/12 01:44:59;;;;;;;19.63;6.00;;;;;;;13.71;80.58;102277.88;5076955;28;20032;-35
2022/06/12 01:47:32;;;;;;;11.48;4.25;;;;;;;13.67;80.82;102274.78;5077347;28;20090;-36
2022/06/12 01:50:10;;;;;;;16.00;4.28;;;;;;;13.54;81.07;102267.50;5076864;28;20032;-35
2022/06/12 01:52:47;;;;;;;14.43;4.05;;;;;;;13.61;81.32;102271.00;5076638;28;20033;-36
2022/06/12 01:55:45;;;;;;;20.15;4.95;;;;;;;13.68;80.55;102278.31;5077294;28;20059;-36
2022/06/12 01:58:21;;;;;;;18.75;4.22;;;;;;;13.54;81.46;102270.22;5054692;28;20124;-36
2022/06/12 02:01:03;;;;;;;12.68;3.63;;;;;;;13.61;81.24;102273.72;5054386;28;20063;-35
2022/06/12 02:03:39;;;;;;;12.05;3.78;;;;;;;13.53;81.51;102271.28;5054877;28;20029;-36
2022/06/12 02:06:13;;;;;;;7.40;3.00;;;;;;;13.53;81.44;102274.00;5054170;28;20037;-37
2022/06/12 02:08:45;;;;;;;7.68;2.80;;;;;;;13.49;82.20;102286.34;5054991;28;20513;-35
2022/06/12 02:14:20;;;;;;;9.07;2.47;;;;;;;13.34;82.66;102267.59;5053850;28;20053;-35
2022/06/12 02:16:52;;;;;;;7.03;2.20;;;;;;;13.37;82.83;102277.16;5053871;28;20517;-35
2022/06/12 02:19:25;;;;;;;6.47;2.38;;;;;;;13.39;82.42;102283.25;5053968;28;20045;-35
2022/06/12 02:22:15;;;;;;;6.88;2.25;;;;;;;13.36;82.60;102278.22;5053961;28;20052;-35
2022/06/12 02:24:55;;;;;;;11.77;3.42;;;;;;;13.38;82.52;102281.59;5053832;28;20055;-35
2022/06/12 02:27:27;;;;;;;17.13;5.65;;;;;;;13.12;82.76;102266.97;5053779;28;20037;-35
2022/06/12 02:30:11;;;;;;;24.23;6.65;;;;;;;13.17;83.38;102279.91;5053620;28;20041;-35
2022/06/12 02:32:42;;;;;;;17.63;5.70;;;;;;;13.05;83.27;102257.19;5053380;28;20477;-35
2022/06/12 02:35:17;;;;;;;27.20;7.03;;;;;;;13.12;83.53;102287.88;5033440;28;20409;-35
2022/06/12 02:37:49;;;;;;;18.73;6.07;;;;;;;13.13;82.71;102268.69;5034292;28;20119;-36
2022/06/12 02:40:39;;;;;;;13.27;3.83;;;;;;;13.18;83.29;102275.34;5034302;28;20037;-36
2022/06/12 02:43:12;;;;;;;10.75;2.97;;;;;;;13.07;82.95;102263.25;5033107;28;20053;-35
2022/06/12 02:46:03;;;;;;;8.82;2.70;;;;;;;13.07;82.91;102261.34;5033845;28;20041;-35
2022/06/12 02:48:30;;;;;;;7.60;2.55;;;;;;;13.00;83.32;102257.84;4993813;28;20042;-36
2022/06/12 02:51:11;;;;;;;7.13;2.63;;;;;;;13.05;84.02;102260.75;5008965;28;20041;-35
2022/06/12 02:53:58;;;;;;;8.32;2.67;;;;;;;12.91;84.08;102244.69;5049169;28;20440;-35
2022/06/12 02:56:54;;;;;;;6.25;2.25;;;;;;;13.05;83.70;102260.75;5033084;28;20055;-35
2022/06/12 02:59:35;;;;;;;8.70;2.33;;;;;;;13.01;83.88;102253.25;5033201;28;20045;-35
2022/06/12 03:02:11;;;;;;;6.72;2.50;;;;;;;12.99;84.58;102261.59;5033504;28;20108;-35
2022/06/12 03:04:42;;;;;;;6.95;2.55;;;;;;;12.94;84.78;102260.56;5033203;28;20478;-36
2022/06/12 03:07:08;;;;;;;6.75;2.25;;;;;;;12.89;84.87;102255.78;5033799;28;20045;-36
2022/06/12 03:09:33;;;;;;;7.15;2.60;;;;;;;12.93;84.61;102264.31;5032968;28;20057;-35
2022/06/12 03:11:59;;;;;;;7.78;2.83;;;;;;;12.91;84.23;102258.28;5033704;28;20492;-35
2022/06/12 03:14:25;;;;;;;6.27;2.20;;;;;;;12.95;83.95;102244.06;5032770;28;20149;-35
2022/06/12 03:16:51;;;;;;;6.70;2.45;;;;;;;12.89;84.66;102272.06;5033598;28;20095;-35
2022/06/12 03:19:27;;;;;;;8.73;2.40;;;;;;;12.88;84.65;102262.25;5032952;28;20494;-35
2022/06/12 03:22:25;;;;;;;5.07;2.05;;;;;;;12.96;84.41;102272.88;5032678;28;20037;-35
2022/06/12 03:25:17;;;;;;;9.65;2.67;;;;;;;12.92;84.46;102271.63;5041505;28;20051;-35
2022/06/12 03:28:00;;;;;;;7.70;2.50;;;;;;;12.96;85.07;102267.44;5075779;28;20035;-36
2022/06/12 03:30:49;;;;;;;7.18;2.65;;;;;;;12.87;84.83;102269.56;5075195;28;20025;-36
2022/06/12 03:33:33;;;;;;;5.47;2.20;;;;;;;12.92;84.48;102259.94;5075462;28;20085;-36
2022/06/12 03:36:10;;;;;;;8.98;2.60;;;;;;;12.87;85.03;102264.13;5075056;28;20028;-35
2022/06/12 03:38:48;;;;;;;10.63;2.78;;;;;;;13.06;84.80;102278.72;5074845;28;20166;-35
2022/06/12 03:41:33;;;;;;;7.85;2.63;;;;;;;12.99;85.64;102277.91;5075190;28;20029;-35
2022/06/12 03:44:28;;;;;;;7.47;2.78;;;;;;;13.03;84.66;102273.72;5074958;28;20099;-35
2022/06/12 03:47:29;;;;;;;7.50;2.55;;;;;;;13.00;84.31;102268.69;5074936;28;20024;-35
2022/06/12 03:50:01;;;;;;;7.32;2.72;;;;;;;13.12;84.72;102271.59;5072433;28;20394;-36
2022/06/12 03:52:32;;;;;;;7.60;2.88;;;;;;;13.14;84.22;102272.22;5072119;28;20032;-36
2022/06/12 03:58:17;;;;;;;7.65;2.58;;;;;;;13.22;83.96;102274.72;5071307;28;20081;-36
2022/06/12 04:00:45;;;;;;;8.15;2.65;;;;;;;13.13;83.47;102278.72;5072569;28;20037;-36
2022/06/12 04:03:27;;;;;;;8.73;2.58;;;;;;;13.22;84.34;102273.88;5072439;28;20111;-36
2022/06/12 04:05:56;;;;;;;6.53;2.47;;;;;;;13.12;83.84;102275.13;5072231;28;20047;-36
2022/06/12 04:08:27;;;;;;;9.90;2.85;;;;;;;13.02;83.89;102266.59;5072275;28;20032;-36
2022/06/12 04:10:55;;;;;;;8.40;2.58;;;;;;;13.16;83.83;102275.53;5071874;28;20186;-36
2022/06/12 04:13:22;;;;;;;7.57;2.40;;;;;;;13.26;83.16;102277.84;5072312;28;20244;-36
2022/06/12 04:15:51;;;;;;;7.15;2.60;;;;;;;13.30;83.36;102279.91;5071389;28;20381;-36
2022/06/12 04:18:17;;;;;;;8.13;2.67;;;;;;;13.29;84.37;102272.00;5071498;28;20063;-36
2022/06/12 04:21:14;;;;;;;5.78;2.13;;;;;;;13.39;83.21;102278.63;5071624;28;20500;-36
2022/06/12 04:23:56;;;;;;;7.10;2.90;;;;;;;13.32;83.08;102280.56;4992314;28;20054;-36
2022/06/12 04:26:31;;;;;;;6.93;2.50;;;;;;;13.37;82.36;102279.88;4992610;28;20070;-36
2022/06/12 04:29:20;;;;;;;7.10;2.30;;;;;;;13.42;83.66;102282.81;4992605;28;20527;-36
2022/06/12 04:31:47;;;;;;;8.27;2.47;;;;;;;13.35;83.60;102279.28;4992372;28;20030;-36
2022/06/12 04:34:19;;;;;;;11.13;2.88;;;;;;;13.49;82.55;102285.50;4992569;28;20052;-36
2022/06/12 04:36:48;;;;;;;8.13;2.53;;;;;;;13.57;82.76;102291.53;4992376;28;20030;-36
2022/06/12 04:39:16;;;;;;;8.63;3.25;;;;;;;13.49;82.84;102277.34;4991990;28;20040;-36
2022/06/12 04:41:43;;;;;;;6.05;2.70;;;;;;;13.65;82.37;102294.00;4992737;28;20452;-36
2022/06/12 04:44:09;;;;;;;10.85;3.05;;;;;;;13.74;81.56;102293.75;4991824;28;20038;-36
2022/06/12 04:46:38;;;;;;;11.25;3.03;;;;;;;13.83;80.88;102297.88;4991880;28;20092;-36
2022/06/12 04:49:04;;;;;;;7.20;2.83;;;;;;;13.77;80.74;102285.19;4991837;28;20041;-36
2022/06/12 04:51:29;;;;;;;7.32;2.72;;;;;;;13.86;80.84;102290.16;4991901;28;20039;-36
2022/06/12 04:53:56;;;;;;;6.85;2.60;;;;;;;13.86;80.31;102278.44;4992102;28;20360;-36
2022/06/12 04:56:24;;;;;;;8.48;2.72;;;;;;;13.88;80.56;102285.31;4991877;28;20057;-36
2022/06/12 04:58:51;;;;;;;7.30;2.55;;;;;;;13.98;80.06;102278.56;4991936;28;20031;-36
2022/06/12 05:01:17;;;;;;;10.07;2.88;;;;;;;14.06;80.68;102290.03;5061304;28;20040;-36
2022/06/12 05:03:43;;;;;;;;;;;;;;;14.27;79.62;102279.84;5073457;28;20477;-36
2022/06/12 05:06:11;;;;;;;6.45;2.30;;;;;;;14.22;79.80;102283.22;5073220;28;19919;-36
2022/06/12 05:08:36;;;;;;;7.57;2.92;;;;;;;14.26;79.09;102276.28;5073103;28;20035;-36
2022/06/12 05:11:02;;;;;;;;;;;;;;;14.51;79.34;102280.94;5073888;28;20115;-36
2022/06/12 05:13:27;;;;;;;12.77;3.88;;;;;;;14.39;79.48;102262.53;5073594;28;20340;-36
2022/06/12 05:15:52;;;;;;;8.67;2.70;;;;;;;14.53;78.34;102278.81;5073158;28;20032;-36
2022/06/12 05:18:19;;;;;;;10.05;3.00;;;;;;;14.62;78.22;102286.47;5073058;28;20359;-36
2022/06/12 05:20:45;;;;;;;8.70;2.90;;;;;;;14.72;78.23;102285.13;5073612;28;20025;-36
2022/06/12 05:23:12;;;;;;;11.65;3.30;;;;;;;14.81;77.99;102291.97;5072953;28;20115;-36
2022/06/12 05:25:37;;;;;;;;;;;;;;;14.98;78.20;102290.31;5073406;28;20103;-36
2022/06/12 05:28:03;;;;;;;7.83;3.40;;;;;;;14.96;77.07;102288.88;5073738;28;19912;-36
2022/06/12 05:30:31;;;;;;;9.38;2.70;;;;;;;14.97;76.92;102291.38;5072888;28;20274;-36
2022/06/12 05:32:59;;;;;;;11.93;3.50;;;;;;;15.09;77.00;102289.59;5072695;28;20119;-36
2022/06/12 05:35:25;;;;;;;13.43;3.60;;;;;;;15.10;77.36;102284.97;5072753;28;20104;-36
2022/06/12 05:37:51;;;;;;;;;;;;;;;15.28;76.69;102287.72;5073865;28;20114;-36
2022/06/12 05:40:20;;;;;;;10.15;3.38;;;;;;;15.23;76.13;102287.56;5072739;28;19908;-35
2022/06/12 05:42:46;;;;;;;8.70;2.83;;;;;;;15.30;76.01;102282.84;5073666;28;20031;-35
2022/06/12 05:45:13;;;;;;;;;;;;;;;15.48;76.39;102289.38;5073969;28;20025;-36
2022/06/12 05:48:01;;;;;;;10.30;3.53;;;;;;;15.41;76.57;102276.63;5073022;28;19908;-36
2022/06/12 05:50:29;;;;;;;11.95;3.40;;;;;;;15.45;76.48;102280.56;5072703;28;20325;-36
2022/06/12 05:52:56;;;;;;;12.80;3.97;;;;;;;15.57;76.32;102288.00;5073499;28;20044;-35
2022/06/12 05:55:22;;;;;;;10.75;3.60;;;;;;;15.66;76.32;102284.75;5072832;28;20435;-35
2022/06/12 05:57:48;;;;;;;;;;;;;;;15.82;76.42;102291.47;5073179;28;20044;-36
2022/06/12 06:00:20;;;;;;;11.57;3.35;;;;;;;15.70;76.50;102291.38;5072650;28;19912;-35
2022/06/12 06:02:45;;;;;;;10.30;3.47;;;;;;;15.72;76.64;102288.44;5073270;28;20093;-36
2022/06/12 06:05:11;;;;;;;;;;;;;;;15.92;76.66;102294.47;5072795;28;20021;-36
2022/06/12 06:07:37;;;;;;;13.57;4.00;;;;;;;15.86;77.00;102298.13;5072603;28;19916;-36
2022/06/12 06:10:05;;;;;;;13.13;3.60;;;;;;;15.82;76.95;102290.63;5072577;28;20074;-35
2022/06/12 06:12:31;;;;;;;13.00;3.78;;;;;;;15.89;76.99;102291.34;5072701;28;20432;-36
2022/06/12 06:14:56;;;;;;;;;;;;;;;16.08;76.79;102292.97;5072846;28;20163;-35
2022/06/12 06:17:21;;;;;;;12.27;3.60;;;;;;;16.03;77.28;102297.47;5073002;28;19913;-35
2022/06/12 06:19:46;;;;;;;;;;;;;;;16.20;76.98;102301.19;5072802;28;20028;-35
2022/06/12 06:22:16;;;;;;;11.02;3.30;;;;;;;16.20;77.02;102298.44;5073987;28;19920;-35
2022/06/12 06:24:42;;;;;;;9.60;3.75;;;;;;;16.28;77.08;102300.84;5076275;28;20029;-36
2022/06/12 06:27:08;;;;;;;11.60;3.75;;;;;;;16.36;77.18;102305.16;5076343;28;20028;-36
2022/06/12 06:29:34;;;;;;;11.35;3.85;;;;;;;16.45;77.10;102303.75;5076296;28;20488;-36
2022/06/12 06:31:59;;;;;;;13.95;4.07;;;;;;;16.51;76.66;102310.16;5076002;28;20041;-36
2022/06/12 06:34:24;;;;;;;;;;;;;;;16.66;76.51;102308.63;5076325;28;20051;-36
2022/06/12 06:36:49;;;;;;;12.47;3.70;;;;;;;16.69;76.80;102307.34;5076475;28;20348;-35
2022/06/12 06:39:15;;;;;;;;;;;;;;;16.91;76.62;102308.44;5076300;28;20480;-35
2022/06/12 06:41:40;;;;;;;14.03;3.73;;;;;;;16.89;76.89;102309.75;5075550;28;20105;-36
2022/06/12 06:46:49;;;;;;;8.90;3.33;;;;;;;16.83;76.79;102311.50;5075947;28;19920;-36
2022/06/12 06:49:14;;;;;;;16.27;4.25;;;;;;;16.79;76.53;102310.34;5075356;28;20025;-36
2022/06/12 06:51:40;;;;;;;;;;;;;;;16.94;76.13;102313.44;5076815;28;20035;-36
2022/06/12 06:54:05;;;;;;;10.27;3.95;;;;;;;16.82;76.39;102315.31;5075204;28;19955;-36
2022/06/12 06:56:31;;;;;;;;;;;;;;;16.96;76.07;102316.75;5073882;28;20127;-36
2022/06/12 06:58:56;;;;;;;14.60;4.40;;;;;;;16.82;76.33;102315.31;5076213;28;20265;-36
2022/06/12 07:01:21;;;;;;;;;;;;;;;17.00;76.72;102322.56;5075682;28;20033;-36
2022/06/12 07:03:47;;;;;;;11.00;3.42;;;;;;;16.87;76.66;102320.06;5076171;28;19981;-36
2022/06/12 07:06:15;;;;;;;12.55;4.30;;;;;;;16.96;76.45;102313.19;5075998;28;20431;-36
2022/06/12 07:08:41;;;;;;;12.07;4.20;;;;;;;17.04;77.33;102312.00;5075250;28;20028;-36
2022/06/12 07:11:06;;;;;;;;;;;;;;;17.19;76.59;102309.63;5076025;28;20029;-36
2022/06/12 07:13:32;;;;;;;7.28;3.38;;;;;;;17.15;76.47;102303.78;5075213;28;20007;-36
2022/06/12 07:15:57;;;;;;;;;;;;;;;17.36;76.04;102315.16;5076141;28;20074;-36
2022/06/12 07:18:23;;;;;;;14.80;4.13;;;;;;;17.39;76.04;102320.16;5075128;28;19920;-36
2022/06/12 07:20:50;;;;;;;;;;;;;;;17.61;76.00;102317.59;5075508;28;20299;-36
2022/06/12 07:23:17;;;;;;;11.57;4.63;;;;;;;17.61;75.13;102310.22;5075086;28;20011;-36
2022/06/12 07:25:54;;;;;;;11.77;3.85;;;;;;;17.68;75.52;102318.31;5075312;28;20028;-36
2022/06/12 07:28:20;;;;;;;;;;;;;;;17.90;75.16;102321.22;5075181;28;20037;-36
2022/06/12 07:30:45;;;;;;;12.23;4.25;;;;;;;17.75;74.72;102314.38;5075620;28;19958;-36
2022/06/12 07:33:11;;;;;;;;;;;;;;;17.96;75.01;102315.63;5074183;28;20024;-36
2022/06/12 07:35:39;;;;;;;11.15;4.28;;;;;;;17.86;75.07;102309.94;5074401;28;20346;-36
2022/06/12 07:38:05;;;;;;;13.45;5.13;;;;;;;17.78;73.53;102309.50;5075101;28;20389;-35
2022/06/12 07:40:33;;;;;;;;;;;;;;;18.01;74.45;102318.44;5075754;28;20029;-36
2022/06/12 07:42:59;;;;;;;13.07;4.35;;;;;;;17.93;74.45;102315.28;5075025;28;19910;-36
2022/06/12 07:45:24;;;;;;;;;;;;;;;18.06;74.07;102325.94;5075178;28;20039;-35
2022/06/12 07:47:49;;;;;;;9.93;3.22;;;;;;;17.88;73.19;102324.22;5075042;28;19912;-35
2022/06/12 07:50:15;;;;;;;;;;;;;;;18.04;73.29;102329.97;5075027;28;20025;-35
2022/06/12 07:52:41;;;;;;;10.50;3.30;;;;;;;17.99;72.99;102323.31;5074677;28;20008;-35
2022/06/12 07:55:09;;;;;;;12.15;4.32;;;;;;;18.09;73.00;102330.91;5074434;28;20148;-36
2022/06/12 07:57:36;;;;;;;11.55;3.75;;;;;;;18.14;72.11;102327.41;5074953;28;20107;-36
2022/06/12 08:00:04;;;;;;;10.70;3.47;;;;;;;18.10;71.26;102315.28;5075067;28;20072;-36
2022/06/12 08:02:31;;;;;;;12.15;3.38;;;;;;;18.29;71.56;102322.22;5074699;28;20032;-36
2022/06/12 08:04:56;;;;;;;13.45;3.55;;;;;;;18.48;70.89;102322.81;5074416;28;20060;-36
2022/06/12 08:07:21;;;;;;;;;;;;;;;18.57;70.13;102321.34;5075119;28;20124;-36
2022/06/12 08:09:47;;;;;;;9.65;3.40;;;;;;;18.45;70.48;102318.69;5075354;28;19913;-36
2022/06/12 08:12:12;;;;;;;;;;;;;;;18.58;71.48;102317.50;5075056;28;20119;-36
2022/06/12 08:14:38;;;;;;;12.20;3.30;;;;;;;18.57;70.71;102315.84;5074007;28;20344;-36
2022/06/12 08:17:03;;;;;;;;;;;;;;;18.71;70.50;102310.91;5074843;28;20067;-37
2022/06/12 08:22:12;;;;;;;9.65;3.70;;;;;;;18.61;69.69;102311.53;5074296;28;20078;-34
2022/06/12 08:24:38;;;;;;;;;;;;;;;18.81;70.14;102308.31;5074328;28;20032;-37
2022/06/12 08:27:04;;;;;;;11.18;3.88;;;;;;;18.65;69.93;102282.56;5074214;28;20277;-36
2022/06/12 08:29:29;;;;;;;;;;;;;;;19.00;69.85;102315.19;5074551;28;20020;-36
2022/06/12 08:32:01;;;;;;;10.40;3.45;;;;;;;18.93;68.43;102297.25;5074670;28;19908;-36
2022/06/12 08:34:38;;;;;;;11.63;3.78;;;;;;;19.19;69.29;102318.47;5073678;28;20447;-36
2022/06/12 08:37:08;;;;;;;10.05;3.05;;;;;;;19.30;67.75;102313.97;5073808;28;20032;-36
2022/06/12 08:39:34;;;;;;;10.90;3.60;;;;;;;19.47;66.65;102322.13;5072340;28;20493;-36
2022/06/12 08:42:24;;;;;;;;;;;;;;;19.68;67.53;102317.75;5074049;28;20054;-36
2022/06/12 08:44:59;;;;;;;10.20;3.35;;;;;;;19.55;65.72;102305.22;5073468;28;19970;-36
2022/06/12 08:47:36;;;;;;;10.40;3.03;;;;;;;19.68;65.69;102310.34;5073550;28;20024;-36
2022/06/12 08:50:16;;;;;;;11.13;3.33;;;;;;;19.66;64.74;102293.31;5073298;28;20266;-36
2022/06/12 08:52:52;;;;;;;12.20;3.30;;;;;;;19.65;64.38;102297.13;5074014;28;20353;-36
2022/06/12 08:55:25;;;;;;;11.05;3.42;;;;;;;19.73;64.20;102290.38;5073459;28;20044;-36
2022/06/12 08:57:58;;;;;;;10.40;3.47;;;;;;;19.89;64.91;102292.19;5073728;28;20376;-36
2022/06/12 09:00:31;;;;;;;7.88;2.92;;;;;;;19.85;63.04;102298.47;5075756;28;20404;-36
2022/06/12 09:02:56;;;;;;;8.93;2.95;;;;;;;19.90;62.13;102295.75;5082525;28;20024;-36
2022/06/12 09:05:26;;;;;;;;;;;;;;;20.17;63.84;102284.78;5094574;28;20042;-36
2022/06/12 09:07:57;;;;;;;9.25;2.88;;;;;;;20.20;61.94;102282.31;5091584;28;19965;-36
2022/06/12 09:10:39;;;;;;;9.50;2.67;;;;;;;20.48;61.98;102280.41;5087417;28;20032;-36
2022/06/12 09:13:27;;;;;;;7.30;2.70;;;;;;;20.60;59.89;102288.47;5078993;28;20060;-36
2022/06/12 09:16:00;;;;;;;9.02;2.65;;;;;;;20.73;60.04;102282.50;5072893;28;20036;-36
2022/06/12 09:18:48;;;;;;;9.40;2.83;;;;;;;20.85;60.30;102276.84;5073093;28;20029;-37
2022/06/12 09:21:42;;;;;;;8.05;3.28;;;;;;;21.08;60.05;102285.50;5073006;28;20036;-36
2022/06/12 09:24:18;;;;;;;8.18;3.00;;;;;;;21.04;58.62;102280.78;5073047;28;20028;-37
2022/06/12 09:27:08;;;;;;;6.43;2.25;;;;;;;20.98;56.89;102273.59;5072957;28;20067;-36
2022/06/12 09:29:46;;;;;;;8.38;2.90;;;;;;;20.79;57.45;102274.06;5072944;28;20036;-37
2022/06/12 09:32:38;;;;;;;8.20;2.60;;;;;;;20.80;57.83;102286.69;5072722;28;20158;-36
2022/06/12 09:35:09;;;;;;;9.95;3.17;;;;;;;20.69;58.84;102282.22;5073398;28;20078;-37
2022/06/12 09:40:52;;;;;;;7.38;2.90;;;;;;;20.85;59.61;102280.41;5091001;28;20036;-36
2022/06/12 09:43:27;;;;;;;8.95;2.72;;;;;;;20.93;55.91;102282.63;5091029;28;20039;-36
2022/06/12 09:46:02;;;;;;;6.95;2.33;;;;;;;20.93;54.81;102282.63;5090989;28;20132;-36
2022/06/12 09:48:42;;;;;;;8.70;2.90;;;;;;;20.91;54.32;102281.25;5090705;28;20031;-35
2022/06/12 09:51:13;;;;;;;7.82;2.30;;;;;;;20.79;54.65;102275.97;5090971;28;20058;-36
2022/06/12 09:54:10;;;;;;;7.95;2.40;;;;;;;20.82;55.93;102283.66;5090549;28;20481;-36
2022/06/12 09:56:44;;;;;;;8.68;2.90;;;;;;;20.71;56.62;102280.03;5090330;28;20044;-36
2022/06/12 09:59:30;;;;;;;8.02;2.65;;;;;;;20.71;56.92;102285.53;5094540;28;20546;-36
2022/06/12 10:02:00;;;;;;;7.97;2.65;;;;;;;20.57;57.54;102282.41;5074657;28;20116;-36
2022/06/12 10:04:37;;;;;;;8.32;3.00;;;;;;;20.57;58.29;102281.56;5057302;28;20088;-36
2022/06/12 10:07:07;;;;;;;7.60;2.90;;;;;;;20.52;58.47;102281.53;5063438;28;20097;-36
2022/06/12 10:09:50;;;;;;;13.20;3.90;;;;;;;20.71;57.98;102273.72;5071287;28;20062;-37
2022/06/12 10:12:24;;;;;;;7.65;2.60;;;;;;;20.77;57.98;102269.91;5053963;28;20037;-36
2022/06/12 10:15:12;;;;;;;8.95;2.55;;;;;;;20.76;56.56;102260.81;5054031;28;20029;-36
2022/06/12 10:17:45;;;;;;;7.70;2.90;;;;;;;20.92;56.00;102264.50;5055243;28;20057;-37
2022/06/12 10:20:21;;;;;;;7.05;2.33;;;;;;;21.01;55.65;102264.81;5056511;28;20036;-36
2022/06/12 10:22:50;;;;;;;7.67;2.63;;;;;;;21.20;55.12;102270.69;5064010;28;20029;-36
2022/06/12 10:25:35;;;;;;;7.40;2.45;;;;;;;21.45;55.90;102273.56;5076657;28;20089;-36
2022/06/12 10:28:18;;;;;;;9.80;2.78;;;;;;;21.66;53.08;102271.72;5076919;28;20422;-36
2022/06/12 10:30:47;;;;;;;7.20;2.42;;;;;;;21.89;52.39;102272.31;5076578;28;20025;-36
2022/06/12 10:33:32;;;;;;;8.55;2.30;;;;;;;21.95;52.93;102265.72;5075779;28;20096;-36
2022/06/12 10:36:00;;;;;;;7.03;2.30;;;;;;;21.92;52.18;102263.53;5075955;28;20101;-36
2022/06/12 10:38:29;;;;;;;5.53;2.00;;;;;;;22.05;52.22;102266.56;5075837;28;20025;-36
2022/06/12 10:41:04;;;;;;;9.63;2.58;;;;;;;22.04;51.92;102253.88;5075620;28;20033;-36
2022/06/12 10:43:36;;;;;;;5.72;2.20;;;;;;;21.90;52.38;102262.94;5075603;28;20542;-36
2022/06/12 10:46:04;;;;;;;7.30;2.58;;;;;;;21.95;52.23;102261.03;5075809;28;20041;-36
2022/06/12 10:48:34;;;;;;;7.45;2.90;;;;;;;22.04;52.56;102256.63;5076097;28;20077;-37
2022/06/12 10:51:25;;;;;;;8.50;2.30;;;;;;;22.20;52.06;102256.69;5076431;28;20111;-37
2022/06/12 10:54:00;;;;;;;5.63;1.98;;;;;;;22.09;51.99;102248.38;5033304;28;20048;-37
2022/06/12 10:56:34;;;;;;;7.22;2.35;;;;;;;21.85;51.20;102259.09;5033430;28;20563;-37
2022/06/12 10:59:17;;;;;;;5.80;2.20;;;;;;;22.11;53.28;102248.16;5033519;28;20041;-37
2022/06/12 11:01:58;;;;;;;7.88;2.20;;;;;;;22.23;52.64;102234.91;5033482;28;20124;-36
2022/06/12 11:04:23;;;;;;;6.20;1.98;;;;;;;22.29;49.54;102244.00;5033721;28;20467;-36
2022/06/12 11:06:54;;;;;;;7.17;2.30;;;;;;;22.48;50.82;102253.38;5032631;28;20033;-36
2022/06/12 11:09:32;;;;;;;5.55;2.13;;;;;;;22.70;51.80;102231.00;5032917;28;20275;-36
2022/06/12 11:12:13;;;;;;;7.22;2.50;;;;;;;22.92;51.02;102236.22;5033573;28;20128;-36
2022/06/12 11:15:07;;;;;;;8.50;2.45;;;;;;;23.10;50.38;102243.06;5033639;28;20033;-36
2022/06/12 11:17:54;;;;;;;5.80;2.10;;;;;;;23.27;49.40;102240.75;5033571;28;20044;-37
2022/06/12 11:20:48;;;;;;;5.90;2.00;;;;;;;23.21;48.45;102228.09;5033130;28;20422;-36
2022/06/12 11:23:48;;;;;;;8.07;2.25;;;;;;;23.50;49.24;102235.69;5033432;28;20120;-36
2022/06/12 11:26:49;;;;;;;6.22;2.05;;;;;;;23.18;48.68;102225.94;5033081;28;20036;-37
2022/06/12 11:29:27;;;;;;;6.35;2.13;;;;;;;23.07;48.69;102235.34;5019960;28;20033;-36
2022/06/12 11:32:14;;;;;;;6.60;2.40;;;;;;;23.03;49.35;102237.81;5070135;28;20477;-36
2022/06/12 11:34:44;;;;;;;5.90;2.42;;;;;;;22.83;49.72;102248.88;5075282;28;20021;-36
2022/06/12 11:37:44;;;;;;;8.85;3.20;;;;;;;22.47;49.57;102245.38;5074769;28;20089;-36
2022/06/12 11:40:47;;;;;;;7.95;2.78;;;;;;;22.14;51.10;102249.50;5073735;28;20043;-36
2022/06/12 11:43:30;;;;;;;6.22;2.67;;;;;;;22.39;52.30;102240.41;5074985;28;20024;-36
2022/06/12 11:46:10;;;;;;;5.80;2.25;;;;;;;22.61;50.91;102229.94;5074654;28;20036;-36
2022/06/12 11:48:35;;;;;;;7.13;2.42;;;;;;;22.52;49.30;102229.66;5075082;28;20094;-36
2022/06/12 11:51:16;;;;;;;7.53;2.70;;;;;;;22.29;49.52;102225.53;5075049;28;20021;-37
2022/06/12 11:54:16;;;;;;;8.52;2.53;;;;;;;22.49;50.15;102212.84;5074514;28;20032;-36
2022/06/12 11:57:01;;;;;;;4.28;1.77;;;;;;;22.45;49.99;102190.53;5074735;28;20185;-37
2022/06/12 12:00:12;;;;;;;7.32;2.00;;;;;;;22.82;49.61;102225.19;5074938;28;20036;-36
2022/06/12 12:03:15;;;;;;;7.57;1.98;;;;;;;22.56;49.20;102213.41;5074526;28;20041;-36
2022/06/12 12:05:46;;;;;;;7.40;2.38;;;;;;;22.53;48.85;102212.00;5074293;28;20104;-36
2022/06/12 12:08:42;;;;;;;7.80;1.90;;;;;;;22.60;50.73;102218.06;5075035;28;20032;-37
2022/06/12 12:11:10;;;;;;;6.80;2.58;;;;;;;22.57;49.59;102209.53;5070367;28;20453;-36
2022/06/12 12:13:43;;;;;;;7.38;2.15;;;;;;;22.44;49.00;102194.38;5074291;28;20020;-36
2022/06/12 12:16:18;;;;;;;5.30;2.00;;;;;;;22.48;48.10;102209.25;5073603;28;20028;-36
2022/06/12 12:18:58;;;;;;;7.18;2.15;;;;;;;22.43;48.28;102216.72;5073893;28;20030;-36
2022/06/12 12:21:42;;;;;;;5.65;1.95;;;;;;;22.42;48.47;102209.56;5073901;28;20056;-36